createdAt,value
2018-02-16T00:01:51.437Z,2.50
2018-02-16T00:04:19.831Z,2.50
2018-02-16T00:06:48.204Z,2.40
2018-02-16T00:09:16.590Z,2.20
2018-02-16T00:11:44.965Z,2.10
2018-02-16T00:14:13.328Z,2.00
2018-02-16T00:16:41.719Z,2.10
2018-02-16T00:19:10.084Z,2.10
2018-02-16T00:21:38.472Z,2.10
2018-02-16T00:24:06.840Z,2.10
2018-02-16T00:26:35.967Z,2.10
2018-02-16T00:29:04.438Z,2.10
2018-02-16T00:31:32.930Z,2.20
2018-02-16T00:34:01.373Z,2.10
2018-02-16T00:36:29.762Z,2.10
2018-02-16T00:38:58.173Z,2.10
2018-02-16T00:41:26.699Z,2.10
2018-02-16T00:43:55.063Z,2.20
2018-02-16T00:46:23.758Z,2.10
2018-02-16T00:48:52.128Z,2.10
2018-02-16T00:51:20.508Z,2.10
2018-02-16T00:53:48.900Z,2.10
2018-02-16T00:56:17.264Z,2.10
2018-02-16T00:58:45.943Z,2.10
2018-02-16T01:01:14.316Z,2.20
2018-02-16T01:03:42.675Z,2.30
2018-02-16T01:06:11.864Z,2.20
2018-02-16T01:08:40.231Z,2.20
2018-02-16T01:11:08.948Z,2.20
2018-02-16T01:13:37.321Z,2.20
2018-02-16T01:16:06.456Z,2.30
2018-02-16T01:18:35.119Z,2.30
2018-02-16T01:21:04.452Z,2.40
2018-02-16T01:23:32.824Z,2.30
2018-02-16T01:26:01.300Z,2.40
2018-02-16T01:28:29.666Z,2.40
2018-02-16T01:30:58.044Z,2.40
2018-02-16T01:33:26.436Z,2.40
2018-02-16T01:35:54.904Z,2.50
2018-02-16T01:38:23.269Z,2.40
2018-02-16T01:40:51.730Z,2.40
2018-02-16T01:43:20.956Z,2.30
2018-02-16T01:45:49.332Z,2.30
2018-02-16T01:48:17.715Z,2.30
2018-02-16T01:50:46.100Z,2.30
2018-02-16T01:53:14.462Z,2.30
2018-02-16T01:55:42.845Z,2.30
2018-02-16T01:58:11.206Z,2.30
2018-02-16T02:00:39.573Z,2.30
2018-02-16T02:03:08.759Z,2.30
2018-02-16T02:05:37.908Z,2.30
2018-02-16T02:08:06.281Z,2.30
2018-02-16T02:10:34.667Z,2.40
2018-02-16T02:13:03.039Z,2.50
2018-02-16T02:15:31.396Z,2.50
2018-02-16T02:17:59.779Z,2.50
2018-02-16T02:20:28.143Z,2.50
2018-02-16T02:22:56.514Z,2.50
2018-02-16T02:25:25.915Z,2.40
2018-02-16T02:27:54.731Z,2.40
2018-02-16T02:30:23.100Z,2.40
2018-02-16T02:32:51.504Z,2.40
2018-02-16T02:35:20.651Z,2.40
2018-02-16T02:37:50.147Z,2.30
2018-02-16T02:40:19.340Z,2.30
2018-02-16T02:42:47.720Z,2.30
2018-02-16T02:45:16.972Z,2.40
2018-02-16T02:47:45.363Z,2.40
2018-02-16T02:50:13.830Z,2.30
2018-02-16T02:52:42.209Z,2.40
2018-02-16T02:55:10.603Z,2.40
2018-02-16T02:57:39.069Z,2.30
2018-02-16T03:00:07.447Z,2.30
2018-02-16T03:02:35.831Z,2.30
2018-02-16T03:05:04.222Z,2.30
2018-02-16T03:07:32.591Z,2.20
2018-02-16T03:10:00.975Z,2.30
2018-02-16T03:12:29.372Z,2.30
2018-02-16T03:14:57.751Z,2.20
2018-02-16T03:17:26.129Z,2.20
2018-02-16T03:19:54.508Z,2.20
2018-02-16T03:22:22.885Z,2.20
2018-02-16T03:24:51.280Z,2.20
2018-02-16T03:27:19.636Z,2.20
2018-02-16T03:29:48.007Z,2.20
2018-02-16T03:32:16.391Z,2.20
2018-02-16T03:34:44.791Z,2.10
2018-02-16T03:37:13.937Z,2.20
2018-02-16T03:39:42.329Z,2.20
2018-02-16T03:42:10.793Z,2.20
2018-02-16T03:44:39.154Z,2.20
2018-02-16T03:47:07.616Z,2.20
2018-02-16T03:49:35.999Z,2.20
2018-02-16T03:52:05.133Z,2.20
2018-02-16T03:54:33.526Z,2.20
2018-02-16T03:57:01.888Z,2.20
2018-02-16T03:59:30.260Z,2.20
2018-02-16T04:01:58.927Z,2.00
2018-02-16T04:04:27.291Z,2.00
2018-02-16T04:06:56.417Z,2.00
2018-02-16T04:09:24.808Z,2.00
2018-02-16T04:11:53.174Z,2.10
2018-02-16T04:14:21.206Z,2.10
2018-02-16T04:16:50.359Z,2.20
2018-02-16T04:19:18.616Z,2.20
2018-02-16T04:21:46.996Z,2.20
2018-02-16T04:24:15.394Z,2.10
2018-02-16T04:26:43.763Z,2.10
2018-02-16T04:29:12.125Z,2.00
2018-02-16T04:31:40.551Z,2.00
2018-02-16T04:34:08.920Z,2.00
2018-02-16T04:36:37.293Z,1.90
2018-02-16T04:39:05.296Z,1.80
2018-02-16T04:41:34.424Z,1.70
2018-02-16T04:44:02.792Z,1.70
2018-02-16T04:46:31.181Z,1.70
2018-02-16T04:48:59.544Z,1.70
2018-02-16T04:51:27.903Z,1.60
2018-02-16T04:53:57.051Z,1.60
2018-02-16T04:56:25.419Z,1.60
2018-02-16T04:58:53.800Z,1.60
2018-02-16T05:01:22.443Z,1.60
2018-02-16T05:03:51.573Z,1.50
2018-02-16T05:06:19.955Z,1.50
2018-02-16T05:08:48.356Z,1.40
2018-02-16T05:11:17.482Z,1.40
2018-02-16T05:13:46.617Z,1.30
2018-02-16T05:16:15.281Z,1.30
2018-02-16T05:18:43.636Z,1.30
2018-02-16T05:21:11.997Z,1.30
2018-02-16T05:23:40.395Z,1.30
2018-02-16T05:26:09.524Z,1.20
2018-02-16T05:28:37.899Z,1.20
2018-02-16T05:31:06.332Z,1.20
2018-02-16T05:33:34.700Z,1.20
2018-02-16T05:36:03.070Z,1.30
2018-02-16T05:38:31.463Z,1.20
2018-02-16T05:40:59.819Z,1.20
2018-02-16T05:43:28.188Z,1.10
2018-02-16T05:45:56.840Z,1.10
2018-02-16T05:48:25.214Z,1.10
2018-02-16T05:50:54.360Z,1.20
2018-02-16T05:53:22.787Z,1.20
2018-02-16T05:55:51.914Z,1.20
2018-02-16T05:58:20.319Z,1.20
2018-02-16T06:00:48.717Z,1.20
2018-02-16T06:03:17.075Z,1.20
2018-02-16T06:05:45.475Z,1.20
2018-02-16T06:08:13.858Z,1.20
2018-02-16T06:10:42.221Z,1.20
2018-02-16T06:13:10.668Z,1.20
2018-02-16T06:15:39.155Z,1.20
2018-02-16T06:18:08.288Z,1.10
2018-02-16T06:20:36.656Z,1.10
2018-02-16T06:23:05.027Z,1.00
2018-02-16T06:25:33.393Z,1.10
2018-02-16T06:28:01.806Z,1.10
2018-02-16T06:30:30.210Z,1.10
2018-02-16T06:32:58.572Z,1.00
2018-02-16T06:35:27.748Z,1.00
2018-02-16T06:37:56.177Z,0.90
2018-02-16T06:40:24.547Z,1.00
2018-02-16T06:42:52.918Z,0.90
2018-02-16T06:45:21.333Z,1.00
2018-02-16T06:47:49.712Z,0.90
2018-02-16T06:50:18.084Z,0.90
2018-02-16T06:52:46.472Z,0.90
2018-02-16T06:55:14.884Z,0.90
2018-02-16T06:57:43.522Z,0.90
2018-02-16T07:00:11.912Z,0.90
2018-02-16T07:02:41.300Z,0.90
2018-02-16T07:05:09.665Z,0.90
2018-02-16T07:07:38.107Z,0.90
2018-02-16T07:10:06.488Z,0.80
2018-02-16T07:12:35.120Z,0.90
2018-02-16T07:15:03.926Z,0.90
2018-02-16T07:17:32.291Z,0.90
2018-02-16T07:20:00.679Z,1.00
2018-02-16T07:22:29.086Z,1.00
2018-02-16T07:24:57.458Z,1.00
2018-02-16T07:27:25.828Z,1.10
2018-02-16T07:29:54.332Z,1.20
2018-02-16T07:32:23.468Z,1.20
2018-02-16T07:34:51.836Z,1.20
2018-02-16T07:37:20.222Z,1.30
2018-02-16T07:39:48.586Z,1.40
2018-02-16T07:42:16.951Z,1.40
2018-02-16T07:44:46.117Z,1.60
2018-02-16T07:47:14.496Z,1.60
2018-02-16T07:49:42.864Z,1.70
2018-02-16T07:52:11.240Z,1.70
2018-02-16T07:54:39.597Z,1.80
2018-02-16T07:57:07.992Z,1.90
2018-02-16T07:59:36.376Z,2.00
2018-02-16T08:02:05.535Z,2.30
2018-02-16T08:04:33.891Z,2.30
2018-02-16T08:07:03.058Z,2.60
2018-02-16T08:09:31.485Z,2.60
2018-02-16T08:11:59.864Z,2.70
2018-02-16T08:14:28.223Z,2.90
2018-02-16T08:16:56.659Z,3.10
2018-02-16T08:19:25.195Z,3.20
2018-02-16T08:21:53.572Z,3.20
2018-02-16T08:24:21.951Z,3.40
2018-02-16T08:26:50.303Z,3.40
2018-02-16T08:29:18.688Z,3.50
2018-02-16T08:31:47.812Z,3.60
2018-02-16T08:34:15.864Z,3.60
2018-02-16T08:36:44.228Z,3.60
2018-02-16T08:39:13.380Z,3.70
2018-02-16T08:41:41.761Z,3.70
2018-02-16T08:44:10.140Z,4.00
2018-02-16T08:46:38.504Z,4.10
2018-02-16T08:49:06.895Z,4.30
2018-02-16T08:51:35.264Z,4.00
2018-02-16T08:54:03.645Z,4.30
2018-02-16T08:56:32.073Z,4.20
2018-02-16T08:59:00.607Z,4.50
2018-02-16T09:01:28.975Z,4.20
2018-02-16T09:03:57.340Z,4.30
2018-02-16T09:06:25.709Z,4.30
2018-02-16T09:08:54.079Z,4.20
2018-02-16T09:11:22.496Z,4.10
2018-02-16T09:13:50.873Z,4.00
2018-02-16T09:16:19.252Z,4.00
2018-02-16T09:18:47.650Z,4.10
2018-02-16T09:21:16.035Z,4.50
2018-02-16T09:23:44.395Z,4.70
2018-02-16T09:26:13.543Z,4.90
2018-02-16T09:28:41.963Z,4.90
2018-02-16T09:31:10.342Z,5.40
2018-02-16T09:33:38.763Z,5.90
2018-02-16T09:36:09.115Z,6.40
2018-02-16T09:38:37.582Z,6.40
2018-02-16T09:41:05.976Z,6.40
2018-02-16T09:43:34.351Z,6.30
2018-02-16T09:46:02.732Z,5.90
2018-02-16T09:48:31.132Z,5.70
2018-02-16T09:50:59.521Z,5.60
2018-02-16T09:53:27.892Z,5.80
2018-02-16T09:55:56.276Z,5.90
2018-02-16T09:58:24.459Z,6.30
2018-02-16T10:00:52.848Z,6.60
2018-02-16T10:03:21.410Z,7.20
2018-02-16T10:05:49.804Z,7.20
2018-02-16T10:08:18.169Z,7.20
2018-02-16T10:10:46.544Z,7.50
2018-02-16T10:13:14.719Z,7.70
2018-02-16T10:15:43.123Z,8.00
2018-02-16T10:18:11.491Z,7.70
2018-02-16T10:20:39.869Z,7.50
2018-02-16T10:23:08.440Z,7.70
2018-02-16T10:25:36.867Z,7.10
2018-02-16T10:28:05.296Z,7.80
2018-02-16T10:30:33.655Z,8.30
2018-02-16T10:33:02.022Z,8.90
2018-02-16T10:35:30.384Z,8.80
2018-02-16T10:37:59.584Z,9.00
2018-02-16T10:40:27.948Z,9.00
2018-02-16T10:42:57.084Z,7.20
2018-02-16T10:50:24.230Z,5.50
2018-02-16T10:52:53.388Z,5.50
2018-02-16T10:55:22.525Z,6.00
2018-02-16T11:00:26.440Z,7.60
2018-02-16T11:03:01.052Z,8.30
2018-02-16T11:05:35.058Z,8.30
2018-02-16T11:08:03.248Z,8.90
2018-02-16T11:10:32.372Z,10.00
2018-02-16T11:13:00.748Z,10.00
2018-02-16T11:15:29.123Z,10.20
2018-02-16T11:17:57.500Z,10.50
2018-02-16T11:20:25.883Z,10.20
2018-02-16T11:22:54.264Z,9.80
2018-02-16T11:25:22.620Z,10.00
2018-02-16T11:27:51.751Z,8.10
2018-02-16T11:30:20.107Z,8.10
2018-02-16T11:32:48.301Z,7.70
2018-02-16T11:35:17.624Z,7.00
2018-02-16T11:37:46.009Z,7.00
2018-02-16T11:40:14.512Z,8.30
2018-02-16T11:42:42.927Z,9.10
2018-02-16T11:45:11.292Z,10.00
2018-02-16T11:47:40.420Z,11.00
2018-02-16T11:50:08.797Z,10.90
2018-02-16T11:52:37.163Z,9.20
2018-02-16T11:55:05.538Z,10.00
2018-02-16T11:57:33.899Z,10.80
2018-02-16T12:00:02.851Z,11.10
2018-02-16T12:02:31.210Z,11.10
2018-02-16T12:04:59.587Z,8.30
2018-02-16T12:07:27.945Z,7.10
2018-02-16T12:09:56.328Z,6.70
2018-02-16T12:12:24.691Z,6.80
2018-02-16T12:14:53.108Z,6.50
2018-02-16T12:17:22.784Z,6.60
2018-02-16T12:19:51.259Z,6.60
2018-02-16T12:22:19.665Z,6.30
2018-02-16T12:24:48.052Z,5.90
2018-02-16T12:27:16.475Z,5.60
2018-02-16T12:29:45.644Z,5.90
2018-02-16T12:32:14.029Z,5.80
2018-02-16T12:34:42.401Z,6.40
2018-02-16T12:37:10.782Z,7.10
2018-02-16T12:39:39.144Z,7.70
2018-02-16T12:42:07.520Z,8.60
2018-02-16T12:44:35.881Z,8.40
2018-02-16T12:47:04.283Z,7.70
2018-02-16T12:49:32.649Z,8.90
2018-02-16T12:52:01.805Z,9.30
2018-02-16T12:54:30.168Z,9.20
2018-02-16T12:56:59.317Z,8.80
2018-02-16T12:59:27.689Z,8.80
2018-02-16T13:01:56.060Z,8.00
2018-02-16T13:04:24.487Z,8.00
2018-02-16T13:06:52.861Z,7.20
2018-02-16T13:09:21.233Z,7.20
2018-02-16T13:11:49.598Z,6.70
2018-02-16T13:14:17.968Z,7.20
2018-02-16T13:16:46.332Z,7.60
2018-02-16T13:19:14.697Z,7.30
2018-02-16T13:21:43.060Z,7.50
2018-02-16T13:24:11.443Z,6.90
2018-02-16T13:26:39.803Z,6.50
2018-02-16T13:29:08.935Z,7.00
2018-02-16T13:31:37.312Z,6.90
2018-02-16T13:34:05.682Z,7.40
2018-02-16T13:36:34.052Z,6.80
2018-02-16T13:39:02.243Z,6.40
2018-02-16T13:41:30.804Z,6.10
2018-02-16T13:43:59.179Z,6.30
2018-02-16T13:46:28.146Z,6.70
2018-02-16T13:48:57.312Z,6.60
2018-02-16T13:51:25.720Z,6.60
2018-02-16T13:53:55.460Z,6.70
2018-02-16T13:56:23.843Z,6.70
2018-02-16T13:58:52.211Z,6.90
2018-02-16T14:01:21.735Z,7.40
2018-02-16T14:03:50.185Z,7.80
2018-02-16T14:06:19.319Z,6.90
2018-02-16T14:08:47.707Z,6.90
2018-02-16T14:11:16.095Z,6.90
2018-02-16T14:13:44.467Z,6.90
2018-02-16T14:16:12.853Z,6.90
2018-02-16T14:18:41.393Z,6.90
2018-02-16T14:21:09.872Z,6.90
2018-02-16T14:23:38.241Z,7.10
2018-02-16T14:26:06.660Z,7.10
2018-02-16T14:28:35.084Z,7.30
2018-02-16T14:31:04.211Z,7.90
2018-02-16T14:33:32.593Z,7.90
2018-02-16T14:36:01.024Z,8.50
2018-02-16T14:38:29.435Z,8.20
2018-02-16T14:40:57.805Z,7.80
2018-02-16T14:43:26.994Z,7.50
2018-02-16T14:45:56.181Z,7.50
2018-02-16T14:48:24.567Z,7.50
2018-02-16T14:50:53.733Z,8.10
2018-02-16T14:53:22.112Z,8.10
2018-02-16T14:55:53.336Z,7.70
2018-02-16T14:58:21.741Z,7.70
2018-02-16T15:00:50.116Z,7.70
2018-02-16T15:03:18.572Z,7.80
2018-02-16T15:05:47.032Z,7.00
2018-02-16T15:08:15.461Z,7.20
2018-02-16T15:10:43.873Z,7.30
2018-02-16T15:13:13.020Z,7.10
2018-02-16T15:15:41.401Z,7.10
2018-02-16T15:18:09.802Z,7.20
2018-02-16T15:20:38.174Z,6.90
2018-02-16T15:23:06.601Z,6.80
2018-02-16T15:25:35.028Z,6.40
2018-02-16T15:28:03.405Z,6.60
2018-02-16T15:30:31.579Z,6.70
2018-02-16T15:32:59.971Z,6.70
2018-02-16T15:35:28.358Z,6.70
2018-02-16T15:37:57.551Z,6.50
2018-02-16T15:40:26.740Z,6.30
2018-02-16T15:42:55.124Z,6.30
2018-02-16T15:45:24.319Z,6.20
2018-02-16T15:47:52.829Z,6.10
2018-02-16T15:50:21.209Z,6.20
2018-02-16T15:52:49.652Z,6.30
2018-02-16T15:55:18.880Z,6.50
2018-02-16T15:57:48.032Z,6.40
2018-02-16T16:00:17.231Z,6.30
2018-02-16T16:02:45.632Z,6.30
2018-02-16T16:05:14.875Z,6.10
2018-02-16T16:07:43.337Z,6.00
2018-02-16T16:10:11.733Z,6.00
2018-02-16T16:12:40.155Z,6.00
2018-02-16T16:15:08.651Z,5.80
2018-02-16T16:17:37.041Z,5.80
2018-02-16T16:20:06.273Z,5.70
2018-02-16T16:22:34.643Z,5.70
2018-02-16T16:25:03.739Z,5.60
2018-02-16T16:27:32.116Z,5.60
2018-02-16T16:30:00.511Z,5.50
2018-02-16T16:32:28.897Z,5.40
2018-02-16T16:34:57.295Z,5.30
2018-02-16T16:37:25.766Z,5.20
2018-02-16T16:39:54.160Z,5.10
2018-02-16T16:42:22.536Z,5.00
2018-02-16T16:44:50.916Z,4.80
2018-02-16T16:47:19.362Z,4.80
2018-02-16T16:49:47.772Z,4.70
2018-02-16T16:52:16.368Z,4.60
2018-02-16T16:54:45.669Z,4.30
2018-02-16T16:57:15.188Z,4.10
2018-02-16T16:59:44.347Z,3.90
2018-02-16T17:02:12.764Z,3.90
2018-02-16T17:04:41.914Z,3.60
2018-02-16T17:07:10.949Z,3.60
2018-02-16T17:09:39.489Z,3.40
2018-02-16T17:12:07.904Z,3.30
2018-02-16T17:14:37.148Z,2.90
2018-02-16T17:17:05.517Z,2.80
2018-02-16T17:19:33.998Z,2.70
2018-02-16T17:22:02.477Z,2.60
2018-02-16T17:24:30.888Z,2.50
2018-02-16T17:26:59.277Z,2.50
2018-02-16T17:29:27.646Z,2.40
2018-02-16T17:31:56.016Z,2.30
2018-02-16T17:34:24.508Z,2.20
2018-02-16T17:36:52.982Z,2.20
2018-02-16T17:39:21.359Z,2.10
2018-02-16T17:41:51.068Z,2.10
2018-02-16T17:44:19.576Z,2.00
2018-02-16T17:46:47.997Z,2.00
2018-02-16T17:49:16.385Z,2.00
2018-02-16T17:51:44.781Z,2.00
2018-02-16T17:54:13.168Z,2.00
2018-02-16T17:56:41.536Z,2.10
2018-02-16T17:59:09.920Z,2.10
2018-02-16T18:01:38.321Z,2.00
2018-02-16T18:04:06.706Z,2.00
2018-02-16T18:06:35.857Z,1.80
2018-02-16T18:09:03.387Z,1.80
2018-02-16T18:11:32.603Z,1.70
2018-02-16T18:14:01.006Z,1.70
2018-02-16T18:16:29.408Z,1.70
2018-02-16T18:18:57.809Z,1.80
2018-02-16T18:21:26.957Z,1.40
2018-02-16T18:23:55.324Z,1.40
2018-02-16T18:26:23.727Z,1.30
2018-02-16T18:28:52.110Z,1.20
2018-02-16T18:31:23.403Z,1.30
2018-02-16T18:33:51.803Z,1.30
2018-02-16T18:36:21.317Z,1.10
2018-02-16T18:38:49.714Z,1.10
2018-02-16T18:41:19.187Z,1.00
2018-02-16T18:43:47.815Z,1.10
2018-02-16T18:46:16.186Z,1.10
2018-02-16T18:48:44.560Z,1.20
2018-02-16T18:51:13.015Z,1.20
2018-02-16T18:53:41.426Z,1.20
2018-02-16T18:56:09.792Z,1.10
2018-02-16T18:58:38.260Z,1.10
2018-02-16T19:01:11.607Z,1.00
2018-02-16T19:03:40.781Z,1.00
2018-02-16T19:06:10.012Z,0.90
2018-02-16T19:08:38.440Z,0.90
2018-02-16T19:11:06.988Z,0.80
2018-02-16T19:13:35.407Z,0.80
2018-02-16T19:16:03.786Z,0.70
2018-02-16T19:18:33.625Z,0.70
2018-02-16T19:21:02.811Z,0.70
2018-02-16T19:23:31.173Z,0.70
2018-02-16T19:26:00.343Z,0.70
2018-02-16T19:28:28.738Z,0.70
2018-02-16T19:30:57.404Z,0.60
2018-02-16T19:33:25.785Z,0.50
2018-02-16T19:35:54.181Z,0.40
2018-02-16T19:38:22.604Z,0.50
2018-02-16T19:40:51.267Z,0.50
2018-02-16T19:43:20.415Z,0.40
2018-02-16T19:45:48.810Z,0.40
2018-02-16T19:48:17.239Z,0.40
2018-02-16T19:50:45.924Z,0.40
2018-02-16T19:53:14.573Z,0.30
2018-02-16T19:55:42.976Z,0.20
2018-02-16T19:58:12.121Z,0.20
2018-02-16T20:00:40.241Z,0.10
2018-02-16T20:03:08.889Z,0.20
2018-02-16T20:05:37.568Z,0.20
2018-02-16T20:08:05.776Z,0.10
2018-02-16T20:10:34.427Z,0.10
2018-02-16T20:13:02.849Z,0.10
2018-02-16T20:15:31.490Z,0.10
2018-02-16T20:18:00.934Z,0.10
2018-02-16T20:20:30.128Z,0.10
2018-02-16T20:22:58.780Z,0.00
2018-02-16T20:25:27.416Z,0.10
2018-02-16T20:27:56.093Z,0.10
2018-02-16T20:30:24.731Z,0.10
2018-02-16T20:32:53.110Z,0.00
2018-02-16T20:35:21.736Z,0.00
2018-02-16T20:37:50.385Z,0.00
2018-02-16T20:40:19.036Z,-0.10
2018-02-16T20:42:48.129Z,-0.20
2018-02-16T20:45:16.514Z,-0.10
2018-02-16T20:47:46.016Z,-0.20
2018-02-16T20:50:14.409Z,-0.20
2018-02-16T20:52:43.122Z,-0.20
2018-02-16T20:55:12.291Z,-0.20
2018-02-16T20:57:40.785Z,-0.20
2018-02-16T21:00:09.212Z,-0.20
2018-02-16T21:02:37.641Z,-0.20
2018-02-16T21:05:06.296Z,-0.20
2018-02-16T21:07:34.950Z,-0.30
2018-02-16T21:10:03.953Z,-0.40
2018-02-16T21:12:32.424Z,-0.40
2018-02-16T21:15:01.098Z,-0.30
2018-02-16T21:17:29.801Z,-0.40
2018-02-16T21:19:58.603Z,-0.40
2018-02-16T21:22:27.320Z,-0.40
2018-02-16T21:24:56.012Z,-0.40
2018-02-16T21:27:25.459Z,-0.40
2018-02-16T21:29:54.117Z,-0.40
2018-02-16T21:32:23.396Z,-0.40
2018-02-16T21:34:51.864Z,-0.40
2018-02-16T21:37:21.716Z,-0.40
2018-02-16T21:39:50.179Z,-0.40
2018-02-16T21:42:18.815Z,-0.30
2018-02-16T21:44:47.508Z,-0.30
2018-02-16T21:47:16.651Z,-0.30
2018-02-16T21:49:45.737Z,-0.30
2018-02-16T21:52:14.721Z,-0.30
2018-02-16T21:54:44.172Z,-0.30
2018-02-16T21:57:12.890Z,-0.30
2018-02-16T21:59:41.657Z,-0.20
2018-02-16T22:02:10.471Z,-0.20
2018-02-16T22:04:40.616Z,-0.10
2018-02-16T22:07:09.271Z,-0.10
2018-02-16T22:09:38.702Z,-0.10
2018-02-16T22:12:07.344Z,-0.10
2018-02-16T22:14:35.995Z,-0.10
2018-02-16T22:17:04.375Z,-0.10
2018-02-16T22:19:33.027Z,-0.10
2018-02-16T22:22:01.660Z,-0.10
2018-02-16T22:24:30.351Z,-0.20
2018-02-16T22:26:59.005Z,-0.20
2018-02-16T22:29:27.704Z,-0.30
2018-02-16T22:31:56.386Z,-0.30
2018-02-16T22:34:25.708Z,-0.40
2018-02-16T22:36:54.365Z,-0.40
2018-02-16T22:39:23.000Z,-0.40
2018-02-16T22:41:52.431Z,-0.50
2018-02-16T22:44:21.088Z,-0.50
2018-02-16T22:46:50.551Z,-0.50
2018-02-16T22:49:19.210Z,-0.50
2018-02-16T22:51:47.963Z,-0.50
2018-02-16T22:54:17.441Z,-0.60
2018-02-16T22:56:46.082Z,-0.60
2018-02-16T22:59:14.716Z,-0.60
2018-02-16T23:01:43.369Z,-0.50
2018-02-16T23:04:12.071Z,-0.50
2018-02-16T23:06:40.715Z,-0.50
2018-02-16T23:09:09.339Z,-0.50
2018-02-16T23:11:37.996Z,-0.40
2018-02-16T23:14:06.632Z,-0.50
2018-02-16T23:16:35.277Z,-0.50
2018-02-16T23:19:03.920Z,-0.50
2018-02-16T23:21:33.334Z,-0.40
2018-02-16T23:24:01.784Z,-0.50
2018-02-16T23:26:30.435Z,-0.40
2018-02-16T23:28:59.080Z,-0.50
2018-02-16T23:31:27.855Z,-0.50
2018-02-16T23:33:57.269Z,-0.40
2018-02-16T23:36:25.938Z,-0.50
2018-02-16T23:38:55.507Z,-0.40
2018-02-16T23:41:24.179Z,-0.40
2018-02-16T23:43:52.425Z,-0.40
2018-02-16T23:46:21.061Z,-0.30
2018-02-16T23:48:49.704Z,-0.30
2018-02-16T23:51:18.384Z,-0.20
2018-02-16T23:53:46.781Z,-0.10
2018-02-16T23:56:15.405Z,-0.10
2018-02-16T23:58:44.053Z,-0.10
